createdAt,value
2023-01-15T02:25:24.179Z,-22753.45
2023-01-15T02:27:54.808Z,-22764.74
2023-01-15T02:30:28.490Z,-22770.35
2023-01-15T02:33:06.101Z,-22775.61
2023-01-15T02:35:37.814Z,-22783.55
2023-01-15T02:38:07.577Z,-22791.27
2023-01-15T02:40:34.908Z,-22797.73
2023-01-15T02:43:01.984Z,-22803.03
2023-01-15T02:45:34.300Z,-22807.64
2023-01-15T02:48:08.674Z,-22812.97
2023-01-15T02:50:37.770Z,-22819.13
2023-01-15T02:53:07.451Z,-22824.56
2023-01-15T02:55:36.932Z,-22829.38
2023-01-15T02:58:10.320Z,-22831.57
2023-01-15T03:00:39.558Z,-22832.15
2023-01-15T03:03:13.287Z,-22828.70
2023-01-15T03:05:43.358Z,-22824.97
2023-01-15T03:08:10.772Z,-22823.06
2023-01-15T03:10:48.197Z,-22821.39
2023-01-15T03:13:24.995Z,-22822.00
2023-01-15T03:16:35.069Z,-22824.36
2023-01-15T03:19:10.462Z,-22827.02
2023-01-15T03:21:52.438Z,-22830.99
2023-01-15T03:24:38.184Z,-22831.26
2023-01-15T03:27:05.644Z,-22829.55
2023-01-15T03:29:40.559Z,-22828.94
2023-01-15T03:32:07.554Z,-22827.13
2023-01-15T03:34:52.875Z,-22825.59
2023-01-15T03:37:21.263Z,-22824.05
2023-01-15T03:39:48.209Z,-22823.68
2023-01-15T03:42:33.221Z,-22822.75
2023-01-15T03:45:12.311Z,-22821.39
2023-01-15T03:48:12.487Z,-22823.92
2023-01-15T03:50:45.570Z,-22824.74
2023-01-15T03:53:19.482Z,-22824.05
2023-01-15T03:56:05.714Z,-22822.14
2023-01-15T03:58:41.941Z,-22821.56
2023-01-15T04:01:11.025Z,-22820.53
2023-01-15T04:03:37.969Z,-22818.58
2023-01-15T04:06:05.729Z,-22818.24
2023-01-15T04:08:38.763Z,-22819.65
2023-01-15T04:11:05.996Z,-22820.16
2023-01-15T04:13:39.872Z,-22821.73
2023-01-15T04:16:08.092Z,-22824.32
2023-01-15T06:44:26.280Z,-22758.89
2023-01-15T06:47:12.718Z,-22769.12
2023-01-15T06:49:39.511Z,-22775.37
2023-01-15T06:52:06.468Z,-22780.84
2023-01-15T06:54:33.441Z,-22786.14
2023-01-15T06:57:00.488Z,-22791.51
2023-01-15T06:59:27.286Z,-22796.47
2023-01-15T07:01:55.652Z,-22801.59
2023-01-15T07:04:22.476Z,-22807.47
2023-01-15T07:06:49.553Z,-22810.92
2023-01-15T07:09:16.422Z,-22814.24
2023-01-15T07:11:49.461Z,-22818.38
2023-01-15T07:14:21.358Z,-22818.99
2023-01-15T07:16:48.496Z,-22818.96
2023-01-15T07:19:15.558Z,-22818.21
2023-01-15T07:21:42.244Z,-22817.90
2023-01-15T07:24:11.339Z,-22818.99
2023-01-15T07:26:38.687Z,-22818.89
2023-01-15T07:29:05.408Z,-22817.42
2023-01-15T07:31:33.670Z,-22816.50
2023-01-15T07:34:00.682Z,-22818.58
2023-01-15T07:36:27.451Z,-22821.29
2023-01-15T07:38:57.210Z,-22823.23
2023-01-15T07:41:43.028Z,-22827.43
2023-01-15T07:44:29.229Z,-22827.06
2023-01-15T07:47:15.840Z,-9131.11
2023-01-15T07:49:45.599Z,-1.00
2023-01-15T07:52:12.959Z,-1.00
2023-01-15T07:54:40.023Z,-1.00
2023-01-15T07:57:07.422Z,-1.00
2023-01-15T07:59:34.927Z,-1.00
2023-01-15T08:02:01.732Z,-1.00
2023-01-15T08:04:28.609Z,-1.00
2023-01-15T08:06:55.679Z,-1.00
2023-01-15T08:09:25.210Z,-1.00
2023-01-15T08:12:11.100Z,-1.00
2023-01-15T08:14:57.296Z,-1.00
2023-01-15T08:17:24.127Z,-1.00
2023-01-15T08:19:52.781Z,-1.00
2023-01-15T08:22:19.554Z,-1.00
2023-01-15T08:24:46.841Z,-1.00
2023-01-15T08:27:13.565Z,-1.00
2023-01-15T08:29:40.459Z,-1.00
2023-01-15T08:32:07.302Z,-1.00
2023-01-15T08:34:34.150Z,-1.00
2023-01-15T08:37:01.163Z,-1.00
2023-01-15T08:39:28.363Z,-1.00
2023-01-15T08:41:56.424Z,-1.00
2023-01-15T08:44:23.323Z,-1.00
2023-01-15T08:46:50.598Z,-1.00
2023-01-15T08:49:20.993Z,-1.00
2023-01-15T08:51:51.263Z,-1.00
2023-01-15T08:54:19.202Z,-1.00
2023-01-15T08:56:46.440Z,-1.00
2023-01-15T08:59:13.367Z,-1.00
2023-01-15T09:01:40.727Z,-1.00
2023-01-15T09:04:07.841Z,-1.00
2023-01-15T09:06:36.043Z,-1.00
2023-01-15T09:09:02.939Z,-1.00
2023-01-15T09:11:29.810Z,-1.00
2023-01-15T09:13:56.575Z,-1.00
2023-01-15T09:16:23.519Z,-1.00
2023-01-15T09:18:50.264Z,-1.00
2023-01-15T09:21:17.109Z,-1.00
2023-01-15T09:37:11.494Z,-4563.52
2023-01-15T09:39:38.389Z,-1.00
2023-01-15T09:42:27.236Z,-1.00
2023-01-15T09:45:21.845Z,-1.00
2023-01-15T09:48:19.841Z,67806.85
2023-01-15T09:50:59.397Z,-1.00
2023-01-15T09:53:36.708Z,-1.00
2023-01-15T09:56:03.946Z,-1.00
2023-01-15T09:58:38.393Z,-1.00
2023-01-15T10:01:05.802Z,-1.00
2023-01-15T10:03:38.427Z,-1.00
2023-01-15T10:06:17.605Z,-1.00
2023-01-15T16:11:44.602Z,-22774.86
2023-01-15T16:14:11.982Z,-22787.55
2023-01-15T16:16:39.008Z,19826.67
2023-01-15T16:19:05.920Z,-1.00
2023-01-15T16:21:36.421Z,-1.00
2023-01-15T16:24:07.894Z,-1.00
2023-01-15T16:26:35.718Z,-1.00
2023-01-15T16:29:04.391Z,-1.00
2023-01-15T16:31:35.358Z,-1.00
2023-01-15T16:34:03.721Z,-1.00
2023-01-15T16:36:38.468Z,-1.00
2023-01-15T16:39:05.340Z,-1.00
2023-01-15T16:41:57.821Z,-1.00
2023-01-15T16:44:34.913Z,-1.00
2023-01-15T16:47:01.665Z,-1.00
2023-01-15T16:49:33.181Z,-1.00
2023-01-15T16:52:01.368Z,-1.00
2023-01-15T16:54:30.990Z,-1.00
2023-01-15T16:56:58.789Z,-1.00
2023-01-15T16:59:25.512Z,-1.00
2023-01-15T17:02:11.657Z,-1.00
2023-01-15T17:04:40.737Z,-1.00
2023-01-15T17:07:13.823Z,-1.00
2023-01-15T17:09:47.234Z,-1.00
2023-01-15T17:12:23.257Z,-1.00
2023-01-15T17:14:50.029Z,-1.00
2023-01-15T17:17:22.643Z,-1.00
2023-01-15T17:19:50.029Z,-1.00
2023-01-15T17:22:21.352Z,-1.00
2023-01-15T17:24:52.872Z,-1.00
2023-01-15T17:27:19.877Z,-1.00
2023-01-15T17:29:46.657Z,-1.00
2023-01-15T17:32:15.445Z,-1.00
2023-01-15T17:34:42.437Z,-1.00
2023-01-15T17:37:09.724Z,-1.00
2023-01-15T17:39:37.392Z,-1.00
2023-01-15T17:42:15.653Z,-1.00
2023-01-15T17:44:42.769Z,-1.00
2023-01-15T17:47:13.468Z,-1.00
2023-01-15T17:49:40.528Z,-1.00
2023-01-15T17:52:11.208Z,-1.00
2023-01-15T17:54:58.866Z,-1.00
2023-01-15T17:57:44.266Z,-1.00
2023-01-15T18:00:30.355Z,-1.00
